Current | Forecast
Updated: 2:05 PM EEST on March 29, 2017
Observed at Ivano-Frankivs'k, Ukraine
Temperature 23°C
Humidity 22%
Dew Point 0°C
Wind West at 25 km/h
Wind Gust 43 km/h
Pressure 1017 hPa (Falling)
Conditions Clear
Visibility -
UV N/A
Clouds
Yesterday's Maximum 20°C
Yesterday's Minimum 5°C approx.
Yesterday's Heating Degree Days 11 approx.
Sunrise7:09 AM EEST
Sunset7:52 PM EEST
Moon Rise8:07 AM EEST
Moon Set9:38 PM EEST
Moon PhaseMoon Phase
Waxing Crescent
Raw METARSPECI UKLI 291105Z 26007G12MPS CAVOK 23/M00 Q1017 R28/090070 TEMPO 29010G15MPS


Monday
. High: 62° F.
Tuesday
. High: 66° F.
Wednesday
. High: 77° F.
Thursday
. High: 82° F.
Friday
. High: 68° F.
Saturday
. High: 66° F.
Sunday
. High: 71° F.
Monday
. High: 75° F.

Units: English | Metric

Find the Weather for any City, State or Zipcode, or Country:

U.S. State List | Severe Weather | Tropical Storms | Ski Conditions
United States | Canada | Central America | South America | Asia | Europe | Australia | Africa | Islands

Weather Underground

© Copyright 2017
The Weather Company, LLC